createdAt,value
2022-09-02T00:01:17.509Z,80.99
2022-09-02T00:03:48.524Z,79.71
2022-09-02T00:06:19.771Z,77.10
2022-09-02T00:08:50.738Z,79.66
2022-09-02T00:11:23.968Z,78.82
2022-09-02T00:13:54.896Z,78.82
2022-09-02T00:16:26.330Z,78.40
2022-09-02T00:18:56.702Z,77.22
2022-09-02T00:21:27.086Z,77.22
2022-09-02T00:23:57.821Z,76.36
2022-09-02T00:26:28.130Z,75.57
2022-09-02T00:28:58.778Z,75.57
2022-09-02T00:31:29.321Z,77.72
2022-09-02T00:34:00.562Z,75.92
2022-09-02T00:36:31.487Z,79.62
2022-09-02T00:39:02.725Z,79.76
2022-09-02T00:41:33.377Z,79.90
2022-09-02T00:44:09.463Z,76.09
2022-09-02T00:46:40.428Z,76.09
2022-09-02T00:49:31.780Z,77.61
2022-09-02T00:55:18.695Z,79.02
2022-09-02T00:57:54.795Z,83.79
2022-09-02T01:00:31.273Z,79.27
2022-09-02T01:03:02.837Z,81.20
2022-09-02T01:05:39.531Z,81.20
2022-09-02T01:08:09.919Z,81.40
2022-09-02T01:10:40.730Z,83.41
2022-09-02T01:13:14.044Z,83.09
2022-09-02T01:15:47.934Z,79.41
2022-09-02T01:18:21.146Z,78.94
2022-09-02T01:21:12.293Z,78.57
2022-09-02T01:23:42.938Z,79.22
2022-09-02T01:26:13.360Z,79.22
2022-09-02T01:28:43.763Z,81.78
2022-09-02T01:31:14.136Z,79.90
2022-09-02T01:33:45.334Z,79.20
2022-09-02T01:36:16.023Z,80.11
2022-09-02T01:38:46.444Z,83.51
2022-09-02T01:41:16.775Z,81.30
2022-09-02T01:43:47.071Z,81.30
2022-09-02T01:46:17.544Z,80.22
2022-09-02T01:48:47.923Z,80.22
2022-09-02T01:51:20.580Z,79.94
2022-09-02T01:53:51.028Z,80.41
2022-09-02T01:56:21.352Z,81.31
2022-09-02T01:58:52.742Z,80.37
2022-09-02T02:01:23.712Z,80.37
2022-09-02T02:03:54.234Z,84.24
2022-09-02T02:06:24.925Z,84.19
2022-09-02T02:08:55.667Z,84.72
2022-09-02T02:11:26.601Z,84.72
2022-09-02T02:13:56.921Z,85.51
2022-09-02T02:16:27.527Z,84.84
2022-09-02T02:18:58.403Z,84.54
2022-09-02T02:21:29.332Z,84.54
2022-09-02T02:24:00.154Z,85.74
2022-09-02T02:26:30.805Z,85.74
2022-09-02T02:29:01.505Z,86.11
2022-09-02T02:31:32.392Z,86.11
2022-09-02T02:34:02.701Z,85.57
2022-09-02T02:36:33.126Z,86.54
2022-09-02T02:39:04.509Z,87.36
2022-09-02T02:41:34.958Z,87.36
2022-09-02T02:44:05.618Z,86.10
2022-09-02T02:46:37.782Z,87.14
2022-09-02T02:49:08.244Z,89.58
2022-09-02T02:51:39.730Z,87.59
2022-09-02T02:54:14.318Z,86.83
2022-09-02T02:56:44.766Z,87.99
2022-09-02T02:59:15.188Z,88.06
2022-09-02T03:01:45.585Z,89.73
2022-09-02T03:04:16.112Z,89.64
2022-09-02T03:06:46.647Z,89.53
2022-09-02T03:09:17.156Z,88.85
2022-09-02T03:11:48.896Z,88.85
2022-09-02T03:14:19.602Z,89.07
2022-09-02T03:16:50.017Z,89.96
2022-09-02T03:19:20.459Z,88.12
2022-09-02T03:21:50.882Z,90.33
2022-09-02T03:24:21.281Z,90.33
2022-09-02T03:26:51.632Z,89.15
2022-09-02T03:29:22.235Z,88.11
2022-09-02T03:31:52.681Z,88.92
2022-09-02T03:34:24.597Z,89.74
2022-09-02T03:36:55.154Z,88.57
2022-09-02T03:39:25.599Z,88.57
2022-09-02T03:41:56.062Z,90.00
2022-09-02T03:44:26.396Z,90.00
2022-09-02T03:46:56.797Z,87.74
2022-09-02T03:49:27.834Z,91.62
2022-09-02T03:51:58.225Z,91.62
2022-09-02T03:54:28.515Z,92.46
2022-09-02T03:56:59.529Z,92.46
2022-09-02T03:59:30.618Z,91.36
2022-09-02T04:02:02.477Z,90.07
2022-09-02T04:04:35.132Z,91.44
2022-09-02T04:07:05.617Z,91.58
2022-09-02T04:09:36.314Z,92.42
2022-09-02T04:12:06.723Z,91.44
2022-09-02T04:14:37.844Z,91.12
2022-09-02T04:17:08.526Z,91.09
2022-09-02T04:19:39.214Z,91.09
2022-09-02T04:22:09.785Z,90.45
2022-09-02T04:24:40.657Z,88.23
2022-09-02T04:27:10.820Z,90.36
2022-09-02T04:29:41.748Z,89.20
2022-09-02T04:32:12.139Z,89.66
2022-09-02T04:34:43.086Z,89.66
2022-09-02T04:37:15.425Z,89.87
2022-09-02T04:39:48.900Z,90.95
2022-09-02T04:42:19.760Z,87.90
2022-09-02T04:44:50.257Z,87.90
2022-09-02T04:47:21.039Z,87.10
2022-09-02T04:49:55.045Z,87.63
2022-09-02T04:52:26.322Z,86.41
2022-09-02T04:54:56.721Z,86.41
2022-09-02T04:57:27.020Z,87.61
2022-09-02T04:59:57.381Z,86.62
2022-09-02T05:02:28.399Z,84.80
2022-09-02T05:04:58.913Z,84.90
2022-09-02T05:07:31.119Z,84.90
2022-09-02T05:10:02.386Z,84.02
2022-09-02T05:12:34.244Z,84.02
2022-09-02T05:15:05.709Z,84.90
2022-09-02T05:17:37.055Z,85.16
2022-09-02T05:20:09.092Z,81.47
2022-09-02T05:22:40.091Z,79.21
2022-09-02T05:25:11.173Z,80.92
2022-09-02T05:27:42.299Z,80.92
2022-09-02T05:30:13.031Z,80.00
2022-09-02T05:32:43.841Z,80.47
2022-09-02T05:35:14.369Z,80.47
2022-09-02T05:37:44.868Z,76.87
2022-09-02T05:40:15.447Z,75.86
2022-09-02T05:42:45.850Z,76.23
2022-09-02T05:45:19.215Z,76.23
2022-09-02T05:47:50.348Z,78.58
2022-09-02T05:50:20.770Z,71.14
2022-09-02T05:52:52.554Z,71.14
2022-09-02T05:55:23.046Z,69.40
2022-09-02T05:57:53.584Z,69.40
2022-09-02T06:00:24.814Z,62.75
2022-09-02T06:02:56.414Z,61.17
2022-09-02T06:05:26.997Z,61.17
2022-09-02T06:07:57.483Z,59.28
2022-09-02T06:10:28.040Z,54.52
2022-09-02T06:12:58.491Z,52.87
2022-09-02T06:15:29.044Z,54.50
2022-09-02T06:17:59.693Z,54.50
2022-09-02T06:20:30.227Z,52.70
2022-09-02T06:23:00.551Z,52.63
2022-09-02T06:25:30.937Z,47.47
2022-09-02T06:28:06.417Z,48.82
2022-09-02T06:30:34.749Z,43.75
2022-09-02T06:33:05.265Z,43.75
2022-09-02T06:35:45.023Z,44.48
2022-09-02T06:38:16.133Z,46.16
2022-09-02T06:40:53.555Z,46.16
2022-09-02T06:43:24.257Z,45.45
2022-09-02T06:45:55.055Z,41.35
2022-09-02T06:48:26.524Z,41.81
2022-09-02T06:50:57.290Z,41.88
2022-09-02T06:53:28.230Z,40.43
2022-09-02T06:55:59.498Z,40.43
2022-09-02T06:58:29.764Z,37.51
2022-09-02T07:01:00.359Z,35.47
2022-09-02T07:03:30.822Z,40.02
2022-09-02T07:06:10.013Z,38.27
2022-09-02T07:08:42.988Z,39.59
2022-09-02T07:11:24.525Z,40.29
2022-09-02T07:13:55.044Z,38.27
2022-09-02T07:16:26.916Z,38.32
2022-09-02T07:18:58.503Z,38.88
2022-09-02T07:21:30.994Z,34.08
2022-09-02T07:24:03.262Z,34.08
2022-09-02T07:26:34.663Z,35.83
2022-09-02T07:29:05.939Z,33.28
2022-09-02T07:31:38.836Z,33.28
2022-09-02T07:34:09.924Z,31.28
2022-09-02T07:36:40.756Z,31.69
2022-09-02T07:39:14.605Z,31.69
2022-09-02T07:41:47.722Z,30.13
2022-09-02T07:44:20.908Z,33.43
2022-09-02T07:46:52.149Z,34.14
2022-09-02T07:49:24.207Z,31.24
2022-09-02T07:51:54.999Z,30.88
2022-09-02T07:54:27.685Z,30.32
2022-09-02T07:56:58.974Z,30.32
2022-09-02T07:59:29.576Z,31.25
2022-09-02T08:02:01.974Z,31.25
2022-09-02T08:04:36.183Z,31.62
2022-09-02T08:07:06.908Z,28.84
2022-09-02T08:09:37.874Z,29.72
2022-09-02T08:12:08.480Z,28.89
2022-09-02T08:14:38.958Z,28.89
2022-09-02T08:17:09.867Z,27.95
2022-09-02T08:19:40.374Z,27.95
2022-09-02T08:22:10.710Z,26.19
2022-09-02T08:24:41.845Z,28.77
2022-09-02T08:27:12.399Z,28.77
2022-09-02T08:29:42.913Z,29.45
2022-09-02T08:32:13.466Z,29.45
2022-09-02T08:34:44.078Z,28.12
2022-09-02T08:37:14.492Z,28.73
2022-09-02T08:39:45.370Z,28.65
2022-09-02T08:42:21.846Z,29.57
2022-09-02T08:44:55.597Z,29.18
2022-09-02T08:47:28.900Z,29.18
2022-09-02T08:50:19.999Z,29.33
2022-09-02T08:53:05.356Z,27.68
2022-09-02T08:55:47.707Z,27.68
2022-09-02T08:58:21.302Z,31.04
2022-09-02T09:01:15.443Z,31.04
2022-09-02T09:03:53.016Z,28.87
2022-09-02T09:06:44.332Z,28.33
2022-09-02T09:09:36.163Z,28.87
2022-09-02T09:12:31.035Z,29.41
2022-09-02T09:15:24.062Z,30.21
2022-09-02T09:17:59.397Z,26.19
2022-09-02T09:20:44.039Z,28.79
2022-09-02T09:23:35.354Z,27.69
2022-09-02T09:26:08.786Z,27.69
2022-09-02T09:28:47.233Z,26.65
2022-09-02T09:31:21.175Z,26.65
2022-09-02T09:34:08.997Z,29.07
2022-09-02T09:39:30.647Z,27.15
2022-09-02T09:42:13.867Z,25.56
2022-09-02T09:44:48.362Z,27.54
2022-09-02T09:47:21.430Z,26.13
2022-09-02T09:49:54.480Z,26.13
2022-09-02T09:52:30.710Z,25.71
2022-09-02T09:58:05.062Z,24.82
2022-09-02T10:00:36.028Z,25.13
2022-09-02T10:03:07.616Z,25.73
2022-09-02T10:05:40.583Z,27.16
2022-09-02T10:08:19.754Z,27.65
2022-09-02T10:11:10.933Z,27.87
2022-09-02T10:13:42.981Z,27.87
2022-09-02T10:16:36.583Z,23.63
2022-09-02T10:19:18.762Z,25.28
2022-09-02T10:22:10.041Z,24.40
2022-09-02T10:25:07.529Z,21.58
2022-09-02T10:27:53.913Z,23.24
2022-09-02T10:30:27.068Z,23.24
2022-09-02T10:33:20.005Z,23.83
2022-09-02T10:35:53.356Z,24.24
2022-09-02T10:38:41.290Z,24.24
2022-09-02T10:41:23.238Z,27.36
2022-09-02T10:44:05.273Z,24.26
2022-09-02T10:46:41.288Z,22.60
2022-09-02T10:49:17.343Z,22.60
2022-09-02T10:51:50.493Z,24.24
2022-09-02T10:54:35.986Z,22.83
2022-09-02T10:57:14.905Z,24.53
2022-09-02T10:59:54.298Z,26.31
2022-09-02T11:02:30.594Z,26.17
2022-09-02T11:05:03.847Z,26.17
2022-09-02T11:07:37.328Z,22.96
2022-09-02T11:10:27.600Z,23.78
2022-09-02T11:13:03.718Z,23.78
2022-09-02T11:15:40.104Z,24.61
2022-09-02T11:18:20.977Z,24.71
2022-09-02T11:20:54.952Z,24.71
2022-09-02T11:23:37.238Z,23.67
2022-09-02T11:26:31.445Z,23.67
2022-09-02T11:29:07.513Z,21.96
2022-09-02T11:31:46.977Z,20.56
2022-09-02T11:34:38.105Z,21.61
2022-09-02T11:37:17.945Z,21.61
2022-09-02T11:40:11.556Z,22.00
2022-09-02T11:42:37.795Z,22.00
2022-09-02T11:45:20.224Z,24.45
2022-09-02T11:48:11.071Z,24.45
2022-09-02T11:51:03.773Z,22.17
2022-09-02T11:53:39.814Z,25.31
2022-09-02T11:56:29.531Z,21.97
2022-09-02T11:59:00.108Z,23.68
2022-09-02T12:01:43.902Z,23.06
2022-09-02T12:04:56.180Z,23.06
2022-09-02T12:07:10.477Z,23.24
2022-09-02T12:09:46.373Z,23.18
2022-09-02T12:12:39.329Z,22.96
2022-09-02T12:15:17.776Z,22.44
2022-09-02T12:17:53.307Z,23.33
2022-09-02T12:20:43.776Z,23.33
2022-09-02T12:26:32.412Z,22.38
2022-09-02T12:29:27.316Z,22.38
2022-09-02T12:31:57.679Z,24.93
2022-09-02T12:34:32.067Z,23.97
2022-09-02T12:37:04.013Z,22.85
2022-09-02T12:39:38.690Z,24.47
2022-09-02T12:42:17.942Z,24.47
2022-09-02T12:44:55.082Z,22.13
2022-09-02T12:47:52.546Z,22.67
2022-09-02T12:53:58.965Z,24.03
2022-09-02T12:56:29.390Z,24.03
2022-09-02T12:59:02.682Z,24.08
2022-09-02T13:01:50.292Z,23.54
2022-09-02T13:04:45.229Z,21.75
2022-09-02T13:07:50.036Z,22.85
2022-09-02T13:10:43.180Z,22.73
2022-09-02T13:13:42.065Z,22.73
2022-09-02T13:16:25.405Z,22.85
2022-09-02T13:19:04.345Z,23.08
2022-09-02T13:21:56.287Z,23.52
2022-09-02T13:24:37.625Z,23.52
2022-09-02T13:27:13.910Z,24.67
2022-09-02T13:30:03.627Z,22.25
2022-09-02T13:32:35.429Z,22.25
2022-09-02T13:35:23.859Z,23.24
2022-09-02T13:37:59.565Z,22.07
2022-09-02T13:40:32.758Z,20.44
2022-09-02T13:43:06.010Z,24.69
2022-09-02T13:45:37.092Z,24.69
2022-09-02T13:48:12.818Z,21.15
2022-09-02T13:50:51.334Z,20.78
2022-09-02T13:53:53.830Z,22.95
2022-09-02T13:56:15.757Z,24.29
2022-09-02T13:58:54.349Z,24.29
2022-09-02T14:01:45.605Z,23.58
2022-09-02T14:04:17.464Z,24.88
2022-09-02T14:06:49.412Z,23.73
2022-09-02T14:09:24.656Z,24.42
2022-09-02T14:12:16.171Z,26.03
2022-09-02T14:14:47.065Z,26.03
2022-09-02T14:17:24.692Z,25.92
2022-09-02T14:20:24.562Z,26.74
2022-09-02T14:23:05.664Z,26.57
2022-09-02T14:25:43.864Z,27.62
2022-09-02T14:28:17.114Z,27.63
2022-09-02T14:30:56.203Z,30.04
2022-09-02T14:34:05.648Z,30.04
2022-09-02T14:36:38.686Z,27.74
2022-09-02T14:39:12.494Z,28.86
2022-09-02T14:41:51.512Z,31.29
2022-09-02T14:44:36.548Z,29.35
2022-09-02T14:47:09.112Z,28.31
2022-09-02T14:52:31.079Z,27.72
2022-09-02T14:55:01.333Z,32.57
2022-09-02T14:57:34.182Z,32.57
2022-09-02T15:00:12.147Z,34.55
2022-09-02T15:02:45.403Z,32.72
2022-09-02T15:05:16.119Z,37.18
2022-09-02T15:07:46.638Z,35.40
2022-09-02T15:10:19.693Z,35.40
2022-09-02T15:12:58.401Z,33.80
2022-09-02T15:15:30.270Z,36.51
2022-09-02T15:18:00.932Z,32.60
2022-09-02T15:20:34.927Z,32.61
2022-09-02T15:23:05.378Z,32.61
2022-09-02T15:25:36.786Z,34.39
2022-09-02T15:28:12.815Z,34.39
2022-09-02T15:30:45.664Z,36.24
2022-09-02T15:33:17.567Z,37.31
2022-09-02T15:35:48.529Z,37.31
2022-09-02T15:38:19.519Z,36.18
2022-09-02T15:40:50.303Z,36.98
2022-09-02T15:43:21.215Z,40.26
2022-09-02T15:45:51.736Z,38.59
2022-09-02T15:48:22.299Z,38.92
2022-09-02T15:50:54.293Z,39.48
2022-09-02T15:53:25.122Z,41.88
2022-09-02T15:56:03.613Z,41.88
2022-09-02T15:58:38.568Z,40.70
2022-09-02T16:01:09.208Z,40.70
2022-09-02T16:03:41.251Z,39.28
2022-09-02T16:06:13.352Z,39.04
2022-09-02T16:08:44.390Z,39.04
2022-09-02T16:11:14.901Z,39.04
2022-09-02T16:13:45.775Z,37.78
2022-09-02T16:16:36.910Z,39.52
2022-09-02T16:19:08.119Z,39.52
2022-09-02T16:21:39.280Z,36.67
2022-09-02T16:24:10.045Z,38.82
2022-09-02T16:26:53.818Z,38.74
2022-09-02T16:29:24.266Z,38.74
2022-09-02T16:32:14.029Z,40.24
2022-09-02T16:34:30.070Z,40.76
2022-09-02T16:37:00.589Z,41.15
2022-09-02T16:39:31.175Z,41.15
2022-09-02T16:42:01.652Z,38.28
2022-09-02T16:44:33.995Z,38.45
2022-09-02T16:47:04.792Z,39.36
2022-09-02T16:49:36.299Z,39.68
2022-09-02T16:52:06.718Z,39.04
2022-09-02T16:54:40.722Z,39.04
2022-09-02T16:57:16.710Z,40.41
2022-09-02T16:59:52.042Z,41.80
2022-09-02T17:02:23.677Z,37.83
2022-09-02T17:04:59.842Z,38.60
2022-09-02T17:07:33.802Z,39.81
2022-09-02T17:10:05.009Z,39.01
2022-09-02T17:12:39.660Z,42.68
2022-09-02T17:15:09.186Z,42.68
2022-09-02T17:17:39.741Z,41.09
2022-09-02T17:20:10.536Z,42.11
2022-09-02T17:22:41.770Z,41.12
2022-09-02T17:25:12.319Z,41.60
2022-09-02T17:27:46.006Z,41.60
2022-09-02T17:30:16.452Z,39.57
2022-09-02T17:32:47.537Z,39.76
2022-09-02T17:35:18.355Z,39.76
2022-09-02T17:37:49.393Z,39.60
2022-09-02T17:40:19.821Z,39.45
2022-09-02T17:42:53.272Z,41.67
2022-09-02T17:45:27.979Z,40.98
2022-09-02T17:48:08.846Z,38.47
2022-09-02T17:50:29.735Z,41.05
2022-09-02T17:53:00.044Z,39.88
2022-09-02T17:55:33.272Z,39.88
2022-09-02T17:58:15.029Z,40.71
2022-09-02T18:00:44.999Z,40.93
2022-09-02T18:03:33.093Z,40.22
2022-09-02T18:06:27.242Z,40.22
2022-09-02T18:09:02.765Z,39.69
2022-09-02T18:11:36.721Z,39.69
2022-09-02T18:14:25.122Z,42.49
2022-09-02T18:17:02.755Z,40.83
2022-09-02T18:19:45.153Z,40.83
2022-09-02T18:22:35.927Z,42.80
2022-09-02T18:25:42.378Z,40.83
2022-09-02T18:28:24.183Z,40.07
2022-09-02T18:31:12.299Z,41.55
2022-09-02T18:33:57.438Z,41.55
2022-09-02T18:36:56.126Z,41.64
2022-09-02T18:39:35.599Z,41.64
2022-09-02T18:42:23.917Z,41.43
2022-09-02T18:45:06.301Z,40.51
2022-09-02T18:47:51.516Z,40.51
2022-09-02T18:50:47.410Z,42.46
2022-09-02T18:53:01.185Z,41.25
2022-09-02T18:55:37.266Z,41.90
2022-09-02T18:58:22.396Z,41.69
2022-09-02T19:00:56.980Z,41.69
2022-09-02T19:03:30.297Z,43.20
2022-09-02T19:06:00.690Z,43.20
2022-09-02T19:08:33.198Z,43.46
2022-09-02T19:11:12.423Z,41.17
2022-09-02T19:13:48.894Z,42.61
2022-09-02T19:16:22.396Z,42.61
2022-09-02T19:18:53.507Z,42.56
2022-09-02T19:21:42.997Z,42.96
2022-09-02T19:24:16.364Z,42.96
2022-09-02T19:26:47.025Z,41.42
2022-09-02T19:29:19.449Z,41.42
2022-09-02T19:31:52.098Z,43.48
2022-09-02T19:34:24.434Z,42.97
2022-09-02T19:36:56.192Z,43.95
2022-09-02T19:39:30.975Z,43.95
2022-09-02T19:42:01.543Z,44.71
2022-09-02T19:44:33.619Z,45.20
2022-09-02T19:49:39.056Z,44.95
2022-09-02T19:52:11.328Z,46.98
2022-09-02T19:54:42.688Z,46.98
2022-09-02T19:57:13.291Z,48.76
2022-09-02T19:59:43.826Z,48.76
2022-09-02T20:02:16.474Z,47.51
2022-09-02T20:04:49.626Z,49.57
2022-09-02T20:07:24.428Z,49.31
2022-09-02T20:09:54.851Z,47.96
2022-09-02T20:12:25.664Z,48.96
2022-09-02T20:14:56.703Z,51.75
2022-09-02T20:17:28.451Z,51.75
2022-09-02T20:20:00.529Z,49.52
2022-09-02T20:22:31.489Z,50.38
2022-09-02T20:25:02.563Z,50.38
2022-09-02T20:27:39.270Z,51.99
2022-09-02T20:30:18.065Z,51.29
2022-09-02T20:32:54.865Z,51.29
2022-09-02T20:35:54.918Z,51.26
2022-09-02T20:38:37.245Z,52.15
2022-09-02T20:41:24.872Z,52.15
2022-09-02T20:44:09.638Z,50.75
2022-09-02T20:46:51.235Z,50.75
2022-09-02T20:49:24.745Z,51.66
2022-09-02T20:55:14.426Z,50.08
2022-09-02T20:58:09.749Z,51.31
2022-09-02T21:00:48.850Z,51.34
2022-09-02T21:03:21.743Z,51.77
2022-09-02T21:05:55.091Z,51.50
2022-09-02T21:08:46.056Z,50.89
2022-09-02T21:11:19.024Z,50.89
2022-09-02T21:14:11.529Z,49.45
2022-09-02T21:16:44.902Z,52.05
2022-09-02T21:19:26.894Z,52.05
2022-09-02T21:22:05.932Z,50.91
2022-09-02T21:24:48.081Z,50.93
2022-09-02T21:27:46.485Z,50.93
2022-09-02T21:30:19.600Z,52.24
2022-09-02T21:35:54.031Z,52.20
2022-09-02T21:38:38.673Z,52.21
2022-09-02T21:41:28.741Z,52.87
2022-09-02T21:44:36.499Z,54.92
2022-09-02T21:47:21.773Z,54.06
2022-09-02T21:50:08.260Z,56.28
2022-09-02T21:52:41.944Z,56.28
2022-09-02T21:55:29.758Z,55.47
2022-09-02T21:58:09.980Z,56.74
2022-09-02T22:00:43.375Z,56.00
2022-09-02T22:03:19.566Z,56.31
2022-09-02T22:05:53.359Z,56.00
2022-09-02T22:14:17.426Z,54.71
2022-09-02T22:17:00.520Z,54.71
2022-09-02T22:19:33.745Z,56.54
2022-09-02T22:22:39.466Z,56.32
2022-09-02T22:25:13.027Z,56.32
2022-09-02T22:27:52.226Z,56.16
2022-09-02T22:30:22.882Z,56.16
2022-09-02T22:33:02.074Z,57.45
2022-09-02T22:35:41.963Z,57.45
2022-09-02T22:38:23.786Z,58.22
2022-09-02T22:41:06.135Z,57.25
2022-09-02T22:43:39.259Z,58.06
2022-09-02T22:46:16.729Z,58.19
2022-09-02T22:48:52.760Z,58.19
2022-09-02T22:51:37.863Z,57.56
2022-09-02T22:54:08.298Z,57.32
2022-09-02T22:56:50.856Z,60.02
2022-09-02T22:59:42.116Z,60.02
2022-09-02T23:02:33.455Z,60.94
2022-09-02T23:05:30.382Z,60.27
2022-09-02T23:08:00.703Z,60.27
2022-09-02T23:10:31.454Z,59.62
2022-09-02T23:13:07.185Z,59.33
2022-09-02T23:15:46.657Z,61.28
2022-09-02T23:18:43.111Z,59.88
2022-09-02T23:21:24.986Z,61.37
2022-09-02T23:24:04.098Z,61.37
2022-09-02T23:26:57.795Z,60.62
2022-09-02T23:29:28.122Z,59.68
2022-09-02T23:32:24.936Z,60.57
2022-09-02T23:35:24.149Z,60.57
2022-09-02T23:38:15.115Z,59.37
2022-09-02T23:41:10.495Z,60.79
2022-09-02T23:43:43.672Z,59.73
2022-09-02T23:49:48.543Z,60.34
2022-09-02T23:52:39.576Z,60.40
2022-09-02T23:55:39.413Z,61.92
2022-09-02T23:58:23.140Z,61.41
